createdAt,value
2023-06-28T00:00:26.005Z,98062.64
2023-06-28T00:02:57.050Z,98061.96
2023-06-28T00:05:24.651Z,98066.63
2023-06-28T00:07:51.763Z,98071.95
2023-06-28T00:10:18.826Z,98073.27
2023-06-28T00:12:46.052Z,98072.98
2023-06-28T00:15:13.292Z,98067.89
2023-06-28T00:17:43.243Z,98066.85
2023-06-28T00:20:11.986Z,98068.55
2023-06-28T00:22:41.122Z,98066.98
2023-06-28T00:25:08.713Z,98064.71
2023-06-28T00:27:36.468Z,98061.27
2023-06-28T00:30:03.840Z,98062.97
2023-06-28T00:32:31.255Z,98066.28
2023-06-28T00:34:58.300Z,98065.09
2023-06-28T00:37:26.561Z,98071.91
2023-06-28T00:39:53.564Z,98073.61
2023-06-28T00:42:20.712Z,98072.63
2023-06-28T00:44:47.732Z,98072.68
2023-06-28T00:47:14.724Z,98071.06
2023-06-28T00:49:43.319Z,98064.17
2023-06-28T00:52:11.415Z,98067.90
2023-06-28T00:54:40.640Z,98071.12
2023-06-28T00:57:07.632Z,98070.52
2023-06-28T00:59:34.657Z,98068.20
2023-06-28T01:02:03.300Z,98065.65
2023-06-28T01:04:30.533Z,98059.27
2023-06-28T01:07:01.177Z,98058.27
2023-06-28T01:09:29.362Z,98057.73
2023-06-28T01:11:56.978Z,98053.86
2023-06-28T01:14:24.930Z,98052.54
2023-06-28T01:16:55.856Z,98056.14
2023-06-28T01:19:24.366Z,98054.70
2023-06-28T01:22:01.624Z,98055.44
2023-06-28T01:24:29.683Z,98050.52
2023-06-28T01:26:59.795Z,98049.60
2023-06-28T01:29:28.115Z,98051.92
2023-06-28T01:31:56.504Z,98057.95
2023-06-28T01:34:25.853Z,98063.18
2023-06-28T01:36:54.440Z,98068.52
2023-06-28T01:39:21.448Z,98070.08
2023-06-28T01:41:48.526Z,98074.10
2023-06-28T01:44:17.756Z,98070.33
2023-06-28T01:46:44.979Z,98073.08
2023-06-28T01:49:12.075Z,98075.66
2023-06-28T01:51:40.625Z,98080.86
2023-06-28T01:54:09.008Z,98086.94
2023-06-28T01:56:36.555Z,98084.83
2023-06-28T01:59:03.821Z,98091.30
2023-06-28T02:01:31.605Z,98093.77
2023-06-28T02:04:00.627Z,98092.56
2023-06-28T02:06:28.207Z,98093.03
2023-06-28T02:08:55.365Z,98091.63
2023-06-28T02:11:22.348Z,98089.22
2023-06-28T02:13:49.364Z,98085.17
2023-06-28T02:16:16.636Z,98088.58
2023-06-28T02:18:46.623Z,98088.81
2023-06-28T02:21:15.602Z,98084.77
2023-06-28T02:23:43.135Z,98091.36
2023-06-28T02:26:10.171Z,98093.63
2023-06-28T02:28:37.867Z,98096.52
2023-06-28T02:31:04.954Z,98097.95
2023-06-28T02:33:32.181Z,98101.52
2023-06-28T02:35:59.504Z,98095.14
2023-06-28T02:38:26.675Z,98092.35
2023-06-28T02:40:53.839Z,98103.41
2023-06-28T02:43:20.764Z,98104.61
2023-06-28T02:45:50.034Z,98102.33
2023-06-28T02:48:17.267Z,98104.11
2023-06-28T02:50:45.593Z,98105.52
2023-06-28T02:53:16.027Z,98106.42
2023-06-28T02:55:43.036Z,98109.52
2023-06-28T02:58:10.740Z,98115.40
2023-06-28T03:00:39.981Z,98115.80
2023-06-28T03:03:11.118Z,98114.40
2023-06-28T03:05:43.871Z,98115.11
2023-06-28T03:08:11.206Z,98111.39
2023-06-28T03:10:39.119Z,98113.55
2023-06-28T03:13:07.261Z,98113.52
2023-06-28T03:15:35.888Z,98125.42
2023-06-28T03:18:03.400Z,98127.80
2023-06-28T03:20:33.248Z,98122.21
2023-06-28T03:23:00.367Z,98123.17
2023-06-28T03:25:27.378Z,98124.89
2023-06-28T03:27:54.364Z,98119.63
2023-06-28T03:30:21.579Z,98116.88
2023-06-28T03:32:49.327Z,98114.42
2023-06-28T03:35:17.283Z,98121.72
2023-06-28T03:37:54.061Z,98133.92
2023-06-28T03:40:21.257Z,98134.50
2023-06-28T03:42:49.384Z,98131.23
2023-06-28T03:45:17.156Z,98132.11
2023-06-28T03:47:47.288Z,98134.32
2023-06-28T03:50:14.508Z,98141.75
2023-06-28T03:52:42.497Z,98142.86
2023-06-28T03:55:10.166Z,98150.19
2023-06-28T03:57:37.193Z,98147.73
2023-06-28T04:00:08.542Z,98142.38
2023-06-28T04:02:41.180Z,98142.36
2023-06-28T04:05:08.496Z,98140.75
2023-06-28T04:07:35.832Z,98138.80
2023-06-28T04:10:03.983Z,98134.32
2023-06-28T04:12:31.237Z,98132.42
2023-06-28T04:14:58.269Z,98132.81
2023-06-28T04:17:25.506Z,98140.27
2023-06-28T04:19:53.027Z,98139.23
2023-06-28T04:22:20.297Z,98140.23
2023-06-28T04:24:47.743Z,98141.45
2023-06-28T04:27:15.686Z,98135.95
2023-06-28T04:29:42.916Z,98137.12
2023-06-28T04:32:22.636Z,98134.66
2023-06-28T04:34:53.925Z,98133.58
2023-06-28T04:37:21.534Z,98133.70
2023-06-28T04:39:48.551Z,98129.71
2023-06-28T04:42:16.426Z,98129.20
2023-06-28T04:44:49.448Z,98126.75
2023-06-28T04:47:17.027Z,98122.63
2023-06-28T04:49:48.998Z,98124.70
2023-06-28T04:52:17.189Z,98123.05
2023-06-28T04:54:44.208Z,98120.73
2023-06-28T04:57:11.913Z,98119.65
2023-06-28T04:59:39.560Z,98123.73
2023-06-28T05:02:06.852Z,98123.78
2023-06-28T05:04:34.505Z,98125.59
2023-06-28T05:07:05.102Z,98124.20
2023-06-28T05:09:36.027Z,98123.20
2023-06-28T05:12:03.249Z,98127.25
2023-06-28T05:14:31.165Z,98128.01
2023-06-28T05:16:58.392Z,98123.34
2023-06-28T05:19:26.116Z,98117.59
2023-06-28T05:21:54.737Z,98116.83
2023-06-28T05:24:22.003Z,98112.86
2023-06-28T05:26:49.008Z,98107.45
2023-06-28T05:29:16.084Z,98107.49
2023-06-28T05:31:43.776Z,98106.73
2023-06-28T05:34:12.380Z,98100.46
2023-06-28T05:36:40.704Z,98099.21
2023-06-28T05:39:09.762Z,98095.05
2023-06-28T05:41:38.406Z,98098.95
2023-06-28T05:44:05.364Z,98099.84
2023-06-28T05:46:33.383Z,98097.18
2023-06-28T05:49:02.217Z,98094.55
2023-06-28T05:51:29.719Z,98100.36
2023-06-28T05:53:56.902Z,98098.85
2023-06-28T05:56:25.147Z,98101.12
2023-06-28T05:58:52.482Z,98102.81
2023-06-28T06:01:19.594Z,98100.13
2023-06-28T06:03:46.841Z,98100.73
2023-06-28T06:06:13.999Z,98093.61
2023-06-28T06:08:41.699Z,98097.54
2023-06-28T06:11:08.763Z,98094.80
2023-06-28T06:13:35.722Z,98095.79
2023-06-28T06:16:03.004Z,98092.65
2023-06-28T06:18:30.298Z,98096.53
2023-06-28T06:20:57.479Z,98099.66
2023-06-28T06:23:24.970Z,98098.52
2023-06-28T06:25:53.330Z,98095.46
2023-06-28T06:28:20.357Z,98101.83
2023-06-28T06:30:47.711Z,98100.55
2023-06-28T06:33:15.264Z,98105.92
2023-06-28T06:35:42.472Z,98111.12
2023-06-28T06:38:09.546Z,98104.41
2023-06-28T06:40:38.377Z,98101.45
2023-06-28T06:43:05.608Z,98100.93
2023-06-28T06:45:32.614Z,98098.19
2023-06-28T06:47:59.796Z,98095.52
2023-06-28T06:50:26.928Z,98093.67
2023-06-28T06:52:54.079Z,98088.89
2023-06-28T06:55:21.076Z,98088.63
2023-06-28T06:57:48.318Z,98085.19
2023-06-28T07:00:17.622Z,98092.02
2023-06-28T07:02:44.799Z,98089.16
2023-06-28T07:05:12.218Z,98089.05
2023-06-28T07:07:39.496Z,98091.24
2023-06-28T07:10:08.037Z,98090.60
2023-06-28T07:12:36.699Z,98089.89
2023-06-28T07:15:04.273Z,98089.19
2023-06-28T07:17:32.394Z,98090.23
2023-06-28T07:19:59.649Z,98090.69
2023-06-28T07:22:28.366Z,98091.39
2023-06-28T07:24:55.598Z,98095.02
2023-06-28T07:27:22.562Z,98089.54
2023-06-28T07:29:49.700Z,98092.48
2023-06-28T07:32:16.747Z,98091.75
2023-06-28T07:34:44.040Z,98080.54
2023-06-28T07:37:11.138Z,98083.61
2023-06-28T07:39:38.100Z,98087.31
2023-06-28T07:42:05.355Z,98089.95
2023-06-28T07:44:32.399Z,98088.62
2023-06-28T07:46:59.374Z,98088.81
2023-06-28T07:49:26.501Z,98088.71
2023-06-28T07:51:54.644Z,98086.00
2023-06-28T07:54:33.160Z,98085.25
2023-06-28T07:57:02.109Z,98083.90
2023-06-28T07:59:29.478Z,98079.30
2023-06-28T08:01:56.614Z,98079.77
2023-06-28T08:04:24.270Z,98080.29
2023-06-28T08:06:51.367Z,98083.13
2023-06-28T08:09:18.830Z,98087.88
2023-06-28T08:11:47.068Z,98089.63
2023-06-28T08:14:14.121Z,98091.82
2023-06-28T08:16:41.267Z,98090.08
2023-06-28T08:19:08.414Z,98094.25
2023-06-28T08:21:37.832Z,98089.91
2023-06-28T08:24:05.025Z,98085.96
2023-06-28T08:26:32.377Z,98095.21
2023-06-28T08:29:00.980Z,98095.62
2023-06-28T08:31:29.952Z,98098.02
2023-06-28T08:33:58.495Z,98099.58
2023-06-28T08:36:25.471Z,98102.05
2023-06-28T08:38:52.447Z,98098.52
2023-06-28T08:41:19.728Z,98093.27
2023-06-28T08:43:48.761Z,98093.64
2023-06-28T08:46:15.847Z,98091.75
2023-06-28T08:48:43.442Z,98092.61
2023-06-28T08:51:10.577Z,98085.84
2023-06-28T08:53:37.671Z,98087.99
2023-06-28T08:56:04.859Z,98086.45
2023-06-28T08:58:32.406Z,98083.24
2023-06-28T09:01:00.348Z,98079.00
2023-06-28T09:03:27.457Z,98077.41
2023-06-28T09:05:54.835Z,98075.77
2023-06-28T09:08:21.831Z,98081.20
2023-06-28T09:10:49.631Z,98084.14
2023-06-28T09:13:21.161Z,98086.00
2023-06-28T09:15:48.917Z,98084.08
2023-06-28T09:18:16.593Z,98079.77
2023-06-28T09:20:51.265Z,98078.73
2023-06-28T09:23:28.490Z,98077.67
2023-06-28T09:25:55.478Z,98069.29
2023-06-28T09:28:35.646Z,98065.77
2023-06-28T09:31:06.593Z,98068.95
2023-06-28T09:33:33.861Z,98062.08
2023-06-28T09:36:02.233Z,98057.11
2023-06-28T09:38:29.342Z,98055.44
2023-06-28T09:41:01.070Z,98063.66
2023-06-28T09:43:32.064Z,98070.33
2023-06-28T09:46:17.086Z,98070.38
2023-06-28T09:48:53.671Z,98073.04
2023-06-28T09:51:21.611Z,98067.38
2023-06-28T09:53:54.259Z,98072.83
2023-06-28T09:56:22.906Z,98063.20
2023-06-28T09:58:50.598Z,98061.31
2023-06-28T10:01:18.041Z,98061.46
2023-06-28T10:03:45.919Z,98053.07
2023-06-28T10:06:13.125Z,98052.86
2023-06-28T10:08:40.512Z,98045.48
2023-06-28T10:11:11.951Z,98043.85
2023-06-28T10:13:41.614Z,98041.70
2023-06-28T10:16:16.114Z,98042.51
2023-06-28T10:18:44.139Z,98043.87
2023-06-28T10:21:11.501Z,98050.90
2023-06-28T10:23:41.767Z,98068.02
2023-06-28T10:26:09.178Z,98070.33
2023-06-28T10:28:36.749Z,98070.77
2023-06-28T10:31:04.107Z,98064.83
2023-06-28T10:33:34.860Z,98062.73
2023-06-28T10:36:02.234Z,98053.15
2023-06-28T10:38:38.816Z,98046.05
2023-06-28T10:41:06.560Z,98036.23
2023-06-28T10:43:33.951Z,98033.86
2023-06-28T10:46:04.922Z,98028.98
2023-06-28T10:48:33.086Z,98030.05
2023-06-28T10:51:01.614Z,98024.97
2023-06-28T10:53:29.717Z,98024.25
2023-06-28T10:56:12.490Z,98026.64
2023-06-28T10:58:42.861Z,98024.50
2023-06-28T11:01:11.254Z,98026.14
2023-06-28T11:03:49.056Z,98033.15
2023-06-28T11:06:16.199Z,98044.40
2023-06-28T11:08:44.938Z,98054.23
2023-06-28T11:11:22.692Z,98062.66
2023-06-28T11:13:50.686Z,98062.55
2023-06-28T11:16:19.356Z,98069.05
2023-06-28T11:18:46.923Z,98071.91
2023-06-28T11:21:16.469Z,98075.30
2023-06-28T11:23:47.570Z,98076.23
2023-06-28T11:26:35.189Z,98080.15
2023-06-28T11:29:02.215Z,98079.52
2023-06-28T11:31:40.005Z,98085.88
2023-06-28T11:34:10.627Z,98080.76
2023-06-28T11:36:38.339Z,98077.54
2023-06-28T11:39:06.613Z,98074.55
2023-06-28T11:41:35.819Z,98071.80
2023-06-28T11:44:04.691Z,98068.98
2023-06-28T11:46:35.185Z,98059.19
2023-06-28T11:49:02.630Z,98058.22
2023-06-28T11:51:31.170Z,98055.17
2023-06-28T11:53:58.438Z,98051.48
2023-06-28T11:56:53.883Z,98046.59
2023-06-28T11:59:22.452Z,98046.03
2023-06-28T12:02:00.623Z,98046.48
2023-06-28T12:04:27.783Z,98040.59
2023-06-28T12:06:55.095Z,98033.27
2023-06-28T12:09:29.435Z,98032.79
2023-06-28T12:12:02.540Z,98031.54
2023-06-28T12:14:32.100Z,98028.98
2023-06-28T12:16:59.158Z,98028.17
2023-06-28T12:19:30.834Z,98021.95
2023-06-28T12:22:01.681Z,98019.29
2023-06-28T12:24:28.851Z,98019.14
2023-06-28T12:26:57.893Z,98012.09
2023-06-28T12:29:32.803Z,98009.18
2023-06-28T12:32:12.543Z,98010.11
2023-06-28T12:34:39.927Z,98010.03
2023-06-28T12:37:09.129Z,98010.73
2023-06-28T12:39:38.023Z,98016.20
2023-06-28T12:42:09.802Z,98010.58
2023-06-28T12:45:02.451Z,98010.41
2023-06-28T12:47:32.072Z,98005.39
2023-06-28T12:49:59.693Z,98001.92
2023-06-28T12:52:27.768Z,98003.44
2023-06-28T12:54:55.827Z,98000.97
2023-06-28T12:57:23.564Z,97997.02
2023-06-28T12:59:51.676Z,97996.59
2023-06-28T13:02:19.171Z,97987.37
2023-06-28T13:04:46.337Z,97993.00
2023-06-28T13:07:13.521Z,97987.71
2023-06-28T13:09:42.536Z,97987.02
2023-06-28T13:12:10.176Z,97988.28
2023-06-28T13:14:37.706Z,97986.11
2023-06-28T13:17:06.993Z,97987.52
2023-06-28T13:19:34.940Z,97993.34
2023-06-28T13:22:01.868Z,97990.52
2023-06-28T13:24:29.140Z,97993.55
2023-06-28T13:26:57.796Z,97998.55
2023-06-28T13:29:26.292Z,97998.80
2023-06-28T13:31:53.347Z,97993.77
2023-06-28T13:34:20.558Z,97997.30
2023-06-28T13:36:48.703Z,97993.07
2023-06-28T13:39:16.195Z,97991.73
2023-06-28T13:41:44.364Z,97990.15
2023-06-28T13:44:11.763Z,97982.91
2023-06-28T13:46:39.266Z,97981.09
2023-06-28T13:49:06.862Z,97981.55
2023-06-28T13:51:34.266Z,97980.10
2023-06-28T13:54:01.475Z,97978.11
2023-06-28T13:56:28.966Z,97986.00
2023-06-28T13:58:56.331Z,97981.70
2023-06-28T14:01:23.648Z,97979.34
2023-06-28T14:03:50.846Z,97978.34
2023-06-28T14:06:17.867Z,97974.31
2023-06-28T14:08:45.099Z,97977.21
2023-06-28T14:11:12.149Z,97981.48
2023-06-28T14:13:39.770Z,97982.96
2023-06-28T14:16:06.787Z,97988.86
2023-06-28T14:18:33.992Z,97996.21
2023-06-28T14:21:01.237Z,98005.12
2023-06-28T14:23:28.702Z,98010.55
2023-06-28T14:25:55.735Z,98005.07
2023-06-28T14:28:23.335Z,98000.00
2023-06-28T14:30:51.421Z,97994.41
2023-06-28T14:33:18.488Z,97983.70
2023-06-28T14:35:45.894Z,97985.60
2023-06-28T14:38:13.213Z,97982.49
2023-06-28T14:40:40.241Z,97983.38
2023-06-28T14:43:09.169Z,97978.25
2023-06-28T14:45:36.205Z,97978.75
2023-06-28T14:48:03.621Z,97979.77
2023-06-28T14:50:31.122Z,97980.80
2023-06-28T14:52:58.390Z,97980.77
2023-06-28T14:55:25.736Z,97989.87
2023-06-28T14:57:52.827Z,98001.86
2023-06-28T15:00:19.994Z,98003.27
2023-06-28T15:02:47.446Z,97997.38
2023-06-28T15:05:14.618Z,97997.14
2023-06-28T15:07:42.698Z,98001.73
2023-06-28T15:10:10.229Z,98003.98
2023-06-28T15:12:37.709Z,98001.16
2023-06-28T15:15:05.805Z,98002.95
2023-06-28T15:17:33.074Z,98006.30
2023-06-28T15:20:00.333Z,98002.67
2023-06-28T15:22:27.472Z,97999.24
2023-06-28T15:24:54.619Z,97998.23
2023-06-28T15:27:21.650Z,98004.85
2023-06-28T15:29:48.676Z,98001.73
2023-06-28T15:32:15.871Z,98001.36
2023-06-28T15:34:42.895Z,98000.63
2023-06-28T15:37:10.036Z,98001.16
2023-06-28T15:39:37.604Z,98001.95
2023-06-28T15:42:05.331Z,98000.17
2023-06-28T15:44:32.524Z,98001.88
2023-06-28T15:46:59.781Z,97996.20
2023-06-28T15:49:29.039Z,98003.57
2023-06-28T15:51:57.198Z,98004.85
2023-06-28T15:54:24.156Z,98001.57
2023-06-28T15:56:54.373Z,98003.02
2023-06-28T15:59:21.352Z,98005.81
2023-06-28T16:01:48.380Z,98010.73
2023-06-28T16:04:15.621Z,98005.82
2023-06-28T16:06:43.006Z,98006.36
2023-06-28T16:09:10.206Z,98001.60
2023-06-28T16:11:37.477Z,98000.86
2023-06-28T16:14:04.801Z,98001.13
2023-06-28T16:16:32.003Z,97997.77
2023-06-28T16:18:58.933Z,98002.83
2023-06-28T16:21:25.949Z,98000.58
2023-06-28T16:23:52.930Z,97999.20
2023-06-28T16:26:20.459Z,97998.48
2023-06-28T16:28:49.862Z,97997.00
2023-06-28T16:31:18.120Z,97997.38
2023-06-28T16:33:45.076Z,97998.65
2023-06-28T16:36:12.168Z,97999.21
2023-06-28T16:38:40.979Z,98002.61
2023-06-28T16:41:07.939Z,97999.17
2023-06-28T16:43:35.118Z,98003.20
2023-06-28T16:46:02.271Z,98006.16
2023-06-28T16:48:29.633Z,98008.50
2023-06-28T16:50:56.668Z,98009.11
2023-06-28T16:53:23.745Z,98007.81
2023-06-28T16:55:50.967Z,98014.06
2023-06-28T16:58:18.517Z,98015.15
2023-06-28T17:00:46.183Z,98020.05
2023-06-28T17:03:13.604Z,98021.15
2023-06-28T17:05:47.324Z,98025.46
2023-06-28T17:08:16.179Z,98024.52
2023-06-28T17:10:44.919Z,98026.63
2023-06-28T17:13:12.525Z,98024.46
2023-06-28T17:15:39.502Z,98026.05
2023-06-28T17:18:06.713Z,98027.34
2023-06-28T17:20:33.736Z,98031.76
2023-06-28T17:23:00.923Z,98033.92
2023-06-28T17:25:32.672Z,98037.15
2023-06-28T17:27:59.801Z,98036.77
2023-06-28T17:30:27.022Z,98035.08
2023-06-28T17:32:54.276Z,98036.05
2023-06-28T17:35:21.416Z,98034.09
2023-06-28T17:37:48.399Z,98035.71
2023-06-28T17:40:15.354Z,98039.70
2023-06-28T17:42:42.620Z,98039.42
2023-06-28T17:45:10.257Z,98040.17
2023-06-28T17:47:37.779Z,98043.73
2023-06-28T17:50:05.460Z,98046.39
2023-06-28T17:52:32.772Z,98046.42
2023-06-28T17:55:02.248Z,98039.39
2023-06-28T17:57:30.034Z,98038.41
2023-06-28T17:59:57.183Z,98033.48
2023-06-28T18:02:25.191Z,98033.71
2023-06-28T18:04:52.281Z,98038.39
2023-06-28T18:07:19.575Z,98044.21
2023-06-28T18:09:46.566Z,98042.52
2023-06-28T18:12:14.169Z,98045.90
2023-06-28T18:14:43.668Z,98048.58
2023-06-28T18:17:11.326Z,98047.35
2023-06-28T18:19:40.160Z,98047.96
2023-06-28T18:22:07.635Z,98052.90
2023-06-28T18:24:35.208Z,98054.42
2023-06-28T18:27:02.163Z,98056.85
2023-06-28T18:29:30.399Z,98056.59
2023-06-28T18:31:57.530Z,98056.97
2023-06-28T18:34:24.601Z,98060.16
2023-06-28T18:36:51.592Z,98061.70
2023-06-28T18:39:19.840Z,98064.16
2023-06-28T18:41:46.856Z,98065.92
2023-06-28T18:44:15.532Z,98064.57
2023-06-28T18:46:42.578Z,98068.30
2023-06-28T18:49:09.599Z,98069.20
2023-06-28T18:51:37.781Z,98076.55
2023-06-28T18:54:05.806Z,98075.41
2023-06-28T18:56:32.973Z,98074.56
2023-06-28T18:59:02.202Z,98075.23
2023-06-28T19:01:29.477Z,98076.39
2023-06-28T19:03:58.802Z,98076.95
2023-06-28T19:06:26.082Z,98078.08
2023-06-28T19:08:54.123Z,98078.36
2023-06-28T19:11:21.068Z,98081.89
2023-06-28T19:13:48.222Z,98084.33
2023-06-28T19:16:15.555Z,98087.77
2023-06-28T19:18:42.532Z,98089.71
2023-06-28T19:21:11.714Z,98091.44
2023-06-28T19:23:40.985Z,98091.55
2023-06-28T19:26:08.826Z,98094.12
2023-06-28T19:28:38.356Z,98091.00
2023-06-28T19:31:05.789Z,98093.52
2023-06-28T19:33:33.218Z,98098.34
2023-06-28T19:36:00.288Z,98095.84
2023-06-28T19:38:28.289Z,98101.55
2023-06-28T19:40:55.307Z,98099.46
2023-06-28T19:43:22.833Z,98099.15
2023-06-28T19:45:49.875Z,98097.67
2023-06-28T19:48:17.662Z,98096.84
2023-06-28T19:52:19.208Z,98097.74
2023-06-28T19:54:46.237Z,98096.77
2023-06-28T19:57:13.748Z,98097.89
2023-06-28T19:59:42.695Z,98096.05
2023-06-28T20:02:09.817Z,98094.66
2023-06-28T20:04:37.140Z,98099.14
2023-06-28T20:07:05.150Z,98095.34
2023-06-28T20:09:32.324Z,98095.42
2023-06-28T20:11:59.588Z,98097.66
2023-06-28T20:14:26.860Z,98099.11
2023-06-28T20:16:54.200Z,98096.45
2023-06-28T20:19:21.696Z,98098.60
2023-06-28T20:21:48.662Z,98096.08
2023-06-28T20:24:16.133Z,98096.91
2023-06-28T20:26:43.244Z,98099.71
2023-06-28T20:29:10.682Z,98101.79
2023-06-28T20:31:39.116Z,98097.64
2023-06-28T20:34:08.836Z,98097.44
2023-06-28T20:36:35.961Z,98094.84
2023-06-28T20:39:05.664Z,98095.88
2023-06-28T20:41:33.097Z,98094.58
2023-06-28T20:44:00.267Z,98096.91
2023-06-28T20:46:27.473Z,98097.02
2023-06-28T20:48:55.132Z,98102.73
2023-06-28T20:51:22.879Z,98100.26
2023-06-28T20:53:49.882Z,98101.38
2023-06-28T20:56:18.088Z,98099.67
2023-06-28T20:58:47.631Z,98100.98
2023-06-28T21:01:19.097Z,98104.13
2023-06-28T21:03:51.416Z,98103.35
2023-06-28T21:06:20.171Z,98114.42
2023-06-28T21:08:47.725Z,98109.06
2023-06-28T21:11:16.702Z,98104.17
2023-06-28T21:13:43.868Z,98104.74
2023-06-28T21:16:11.180Z,98104.17
2023-06-28T21:18:40.703Z,98106.05
2023-06-28T21:21:07.755Z,98102.16
2023-06-28T21:23:38.928Z,98101.54
2023-06-28T21:26:06.854Z,98101.95
2023-06-28T21:28:34.159Z,98101.55
2023-06-28T21:31:01.219Z,98102.61
2023-06-28T21:33:28.287Z,98105.91
2023-06-28T21:35:55.226Z,98103.73
2023-06-28T21:38:22.207Z,98100.21
2023-06-28T21:40:49.233Z,98100.28
2023-06-28T21:43:16.630Z,98105.21
2023-06-28T21:45:43.869Z,98102.30
2023-06-28T21:48:11.064Z,98107.41
2023-06-28T21:50:38.625Z,98112.73
2023-06-28T21:53:05.595Z,98112.33
2023-06-28T21:55:32.859Z,98114.45
2023-06-28T21:58:00.748Z,98118.70
2023-06-28T22:00:30.105Z,98117.95
2023-06-28T22:02:57.146Z,98115.34
2023-06-28T22:05:24.529Z,98116.14
2023-06-28T22:07:53.158Z,98117.27
2023-06-28T22:10:20.238Z,98119.60
2023-06-28T22:12:48.674Z,98118.16
2023-06-28T22:15:17.198Z,98117.48
2023-06-28T22:17:45.057Z,98122.77
2023-06-28T22:20:13.057Z,98123.85
2023-06-28T22:22:40.094Z,98124.49
2023-06-28T22:25:07.296Z,98120.83
2023-06-28T22:27:35.309Z,98122.27
2023-06-28T22:30:02.929Z,98122.02
2023-06-28T22:32:30.389Z,98122.91
2023-06-28T22:34:57.391Z,98123.42
2023-06-28T22:37:24.390Z,98117.89
2023-06-28T22:39:51.445Z,98119.31
2023-06-28T22:42:19.086Z,98120.56
2023-06-28T22:44:46.183Z,98118.02
2023-06-28T22:47:14.577Z,98118.05
2023-06-28T22:49:42.831Z,98112.15
2023-06-28T22:52:10.187Z,98112.00
2023-06-28T22:54:38.120Z,98112.11
2023-06-28T22:57:05.557Z,98112.40
2023-06-28T22:59:33.289Z,98108.86
2023-06-28T23:02:00.375Z,98108.14
2023-06-28T23:04:27.484Z,98111.34
2023-06-28T23:06:54.642Z,98116.27
2023-06-28T23:09:22.531Z,98119.91
2023-06-28T23:11:53.033Z,98115.11
2023-06-28T23:14:20.342Z,98112.04
2023-06-28T23:16:47.459Z,98108.29
2023-06-28T23:19:14.838Z,98110.05
2023-06-28T23:21:44.652Z,98107.54
2023-06-28T23:24:11.721Z,98109.90
2023-06-28T23:26:40.728Z,98111.54
2023-06-28T23:29:08.035Z,98108.34
2023-06-28T23:31:34.997Z,98106.63
2023-06-28T23:34:02.303Z,98099.36
2023-06-28T23:36:30.425Z,98104.50
2023-06-28T23:38:57.415Z,98106.05
2023-06-28T23:41:24.351Z,98111.79
2023-06-28T23:43:51.644Z,98112.37
2023-06-28T23:46:18.614Z,98106.14
2023-06-28T23:48:46.000Z,98109.52
2023-06-28T23:51:13.252Z,98107.26
2023-06-28T23:53:40.786Z,98108.34
2023-06-28T23:56:10.161Z,98112.09
2023-06-28T23:58:38.450Z,98106.55
